Time;durP1;ratioP1;P1;durP2;ratioP2;P2;SDS_P1;SDS_P2;PMS_P1;PMS_P2;Temp;Humidity;BMP_temperature;BMP_pressure;BME280_temperature;BME280_humidity;BME280_pressure;Samples;Min_cycle;Max_cycle;Signal;HPM_P1;HPM_P2
2021/04/19 00:02:12;;;;;;;;;;;31.10;24.30;;;;;;5074329;28;20346;-69
2021/04/19 00:04:38;;;;;;;;;;;31.10;24.30;;;;;;5074221;28;19931;-69
2021/04/19 00:07:04;;;;;;;;;;;31.30;23.90;;;;;;5074164;28;20380;-68
2021/04/19 00:09:30;;;;;;;;;;;31.20;24.40;;;;;;5075077;28;20365;-68
2021/04/19 00:11:56;;;;;;;;;;;30.90;23.50;;;;;;5074951;28;20294;-68
2021/04/19 00:14:22;;;;;;;;;;;31.00;22.10;;;;;;5075067;28;19951;-68
2021/04/19 00:16:48;;;;;;;;;;;30.60;21.60;;;;;;5075758;28;19921;-69
2021/04/19 00:19:14;;;;;;;;;;;30.60;22.30;;;;;;5064986;28;19958;-69
2021/04/19 00:21:40;;;;;;;;;;;30.40;20.00;;;;;;5074563;28;19918;-69
2021/04/19 00:24:06;;;;;;;;;;;30.50;19.90;;;;;;5075809;28;19943;-68
2021/04/19 00:26:32;;;;;;;;;;;30.40;20.80;;;;;;5078319;28;19912;-69
2021/04/19 00:28:58;;;;;;;;;;;30.20;20.70;;;;;;5075266;28;19919;-69
2021/04/19 00:31:25;;;;;;;;;;;30.20;20.80;;;;;;5075543;28;19913;-69
2021/04/19 00:33:51;;;;;;;;;;;30.10;20.70;;;;;;5074994;28;20330;-69
2021/04/19 00:36:17;;;;;;;;;;;29.90;21.30;;;;;;5074769;28;20000;-69
2021/04/19 00:38:43;;;;;;;;;;;30.00;21.10;;;;;;5075947;28;20334;-69
2021/04/19 00:41:11;;;;;;;;;;;29.80;20.80;;;;;;5075411;28;19967;-68
2021/04/19 00:43:37;;;;;;;;;;;29.80;20.80;;;;;;5075256;28;19916;-69
2021/04/19 00:46:04;;;;;;;;;;;29.60;20.70;;;;;;5073370;28;19912;-69
2021/04/19 00:48:31;;;;;;;;;;;29.50;21.10;;;;;;5072691;28;19917;-69
2021/04/19 00:50:57;;;;;;;;;;;29.40;21.00;;;;;;5075974;28;19912;-68
2021/04/19 00:53:26;;;;;;;;;;;29.10;21.40;;;;;;5074944;28;19912;-68
2021/04/19 00:55:53;;;;;;;;;;;28.90;21.90;;;;;;5075237;28;20215;-68
2021/04/19 00:58:21;;;;;;;;;;;28.90;21.10;;;;;;5073935;28;19930;-68
2021/04/19 01:00:48;;;;;;;;;;;28.70;21.60;;;;;;5074400;28;19913;-68
2021/04/19 01:03:14;;;;;;;;;;;28.60;22.30;;;;;;5075286;28;20387;-68
2021/04/19 01:05:41;;;;;;;;;;;28.40;22.20;;;;;;5075318;28;19915;-68
2021/04/19 01:08:07;;;;;;;;;;;28.50;22.30;;;;;;5074566;28;19919;-68
2021/04/19 01:10:34;;;;;;;;;;;28.20;21.70;;;;;;5074706;28;20377;-68
2021/04/19 01:13:00;;;;;;;;;;;28.10;22.60;;;;;;5059018;28;19923;-68
2021/04/19 01:15:26;;;;;;;;;;;28.00;22.90;;;;;;5075140;28;19919;-68
2021/04/19 01:17:52;;;;;;;;;;;28.10;23.00;;;;;;5075054;28;19920;-68
2021/04/19 01:20:19;;;;;;;;;;;28.20;23.40;;;;;;5075147;28;19908;-68
2021/04/19 01:22:46;;;;;;;;;;;28.20;23.00;;;;;;5074503;28;19908;-68
2021/04/19 01:25:14;;;;;;;;;;;28.10;23.20;;;;;;5074215;28;20011;-68
2021/04/19 01:27:40;;;;;;;;;;;27.80;23.90;;;;;;5081825;28;19912;-68
2021/04/19 01:30:07;;;;;;;;;;;27.90;23.70;;;;;;5074902;28;19913;-68
2021/04/19 01:32:33;;;;;;;;;;;27.70;23.90;;;;;;5072691;28;19924;-68
2021/04/19 01:34:59;;;;;;;;;;;27.70;23.60;;;;;;5075039;28;19981;-68
2021/04/19 01:37:25;;;;;;;;;;;27.70;23.70;;;;;;5072869;28;19924;-68
2021/04/19 01:39:51;;;;;;;;;;;27.70;23.80;;;;;;5074759;28;19964;-68
2021/04/19 01:42:17;;;;;;;;;;;27.60;23.90;;;;;;5074803;28;19925;-70
2021/04/19 01:44:43;;;;;;;;;;;27.40;24.10;;;;;;5072232;28;19923;-70
2021/04/19 01:47:10;;;;;;;;;;;27.30;24.10;;;;;;5073500;28;20346;-71
2021/04/19 01:49:36;;;;;;;;;;;26.90;24.10;;;;;;5068968;28;20433;-69
2021/04/19 01:52:02;;;;;;;;;;;26.50;24.70;;;;;;5073165;28;19919;-69
2021/04/19 01:54:28;;;;;;;;;;;26.40;27.00;;;;;;5089004;28;19918;-69
2021/04/19 01:56:54;;;;;;;;;;;26.20;28.10;;;;;;5074455;28;19958;-69
2021/04/19 01:59:21;;;;;;;;;;;25.80;30.30;;;;;;5073933;28;20251;-69
2021/04/19 02:02:19;;;;;;;;;;;25.30;30.90;;;;;;5074671;28;19920;-69
2021/04/19 02:04:57;;;;;;;;;;;24.80;31.30;;;;;;5042815;28;19909;-70
2021/04/19 02:07:43;;;;;;;;;;;24.00;33.60;;;;;;5054547;28;19909;-69
2021/04/19 02:10:19;;;;;;;;;;;23.50;34.30;;;;;;5054612;28;19912;-69
2021/04/19 02:12:51;;;;;;;;;;;23.20;34.40;;;;;;5054826;28;19913;-69
2021/04/19 02:15:37;;;;;;;;;;;22.70;36.10;;;;;;5064728;28;19912;-69
2021/04/19 02:18:11;;;;;;;;;;;22.20;36.40;;;;;;5074433;28;19912;-69
2021/04/19 02:20:49;;;;;;;;;;;21.70;36.70;;;;;;5076789;28;19913;-69
2021/04/19 02:23:39;;;;;;;;;;;21.20;38.80;;;;;;5077954;28;19916;-69
2021/04/19 02:26:08;;;;;;;;;;;20.80;40.10;;;;;;5078016;28;19917;-69
2021/04/19 02:28:39;;;;;;;;;;;20.40;40.20;;;;;;5075948;28;19917;-69
2021/04/19 02:31:09;;;;;;;;;;;20.10;41.10;;;;;;5065669;28;20243;-69
2021/04/19 02:33:40;;;;;;;;;;;19.90;40.90;;;;;;5074020;28;19928;-69
2021/04/19 02:36:07;;;;;;;;;;;19.70;39.90;;;;;;5073936;28;19916;-68
2021/04/19 02:38:34;;;;;;;;;;;19.50;43.10;;;;;;5074857;28;20349;-68
2021/04/19 02:41:02;;;;;;;;;;;19.30;43.40;;;;;;5075072;28;20352;-69
2021/04/19 02:43:31;;;;;;;;;;;19.20;43.00;;;;;;5079150;28;19972;-69
2021/04/19 02:45:58;;;;;;;;;;;19.20;44.10;;;;;;5077417;28;20007;-72
2021/04/19 02:48:25;;;;;;;;;;;18.80;44.70;;;;;;5077070;28;19920;-71
2021/04/19 02:50:52;;;;;;;;;;;18.60;45.50;;;;;;5076825;28;19935;-71
2021/04/19 02:53:21;;;;;;;;;;;18.50;46.50;;;;;;5076659;28;20372;-70
2021/04/19 02:55:48;;;;;;;;;;;18.30;45.00;;;;;;5077153;28;19912;-71
2021/04/19 02:58:16;;;;;;;;;;;18.20;46.90;;;;;;5075540;28;19928;-71
2021/04/19 03:00:44;;;;;;;;;;;18.20;45.70;;;;;;5076400;28;19913;-72
2021/04/19 03:03:23;;;;;;;;;;;18.00;48.00;;;;;;5077000;28;19912;-70
2021/04/19 03:05:49;;;;;;;;;;;17.90;47.20;;;;;;5068223;28;19982;-72
2021/04/19 03:08:17;;;;;;;;;;;17.90;47.10;;;;;;5071474;28;20254;-70
2021/04/19 03:10:47;;;;;;;;;;;17.90;46.70;;;;;;5075693;28;19917;-72
2021/04/19 03:13:14;;;;;;;;;;;18.00;42.50;;;;;;5071774;28;19931;-70
2021/04/19 03:15:41;;;;;;;;;;;18.00;46.70;;;;;;5075238;28;19912;-70
2021/04/19 03:18:09;;;;;;;;;;;18.10;40.10;;;;;;5074845;28;20028;-70
2021/04/19 03:20:48;;;;;;;;;;;18.00;46.10;;;;;;5075088;28;19920;-70
2021/04/19 03:23:15;;;;;;;;;;;17.80;48.10;;;;;;5079565;28;19923;-69
2021/04/19 03:25:42;;;;;;;;;;;17.50;49.30;;;;;;5080244;28;20373;-69
2021/04/19 03:28:08;;;;;;;;;;;17.40;49.50;;;;;;5068682;28;19913;-69
2021/04/19 03:30:34;;;;;;;;;;;17.30;49.20;;;;;;5074282;28;20270;-69
2021/04/19 03:33:01;;;;;;;;;;;17.30;49.50;;;;;;5074535;28;20350;-68
2021/04/19 03:35:31;;;;;;;;;;;17.30;44.50;;;;;;5087951;28;20028;-69
2021/04/19 03:37:58;;;;;;;;;;;17.40;48.80;;;;;;5081534;28;20380;-69
2021/04/19 03:40:27;;;;;;;;;;;17.50;46.30;;;;;;5079423;28;19924;-69
2021/04/19 03:42:55;;;;;;;;;;;17.50;43.10;;;;;;5075186;28;20182;-69
2021/04/19 03:45:22;;;;;;;;;;;17.50;46.30;;;;;;5082437;28;19955;-69
2021/04/19 03:47:50;;;;;;;;;;;17.30;47.30;;;;;;5076606;28;19991;-68
2021/04/19 03:50:17;;;;;;;;;;;17.40;44.60;;;;;;5066915;28;19986;-69
2021/04/19 03:52:46;;;;;;;;;;;17.20;47.10;;;;;;5073910;28;20386;-69
2021/04/19 03:55:15;;;;;;;;;;;17.10;49.10;;;;;;5067338;28;20026;-69
2021/04/19 03:57:43;;;;;;;;;;;17.00;50.30;;;;;;5075889;28;19981;-69
2021/04/19 04:00:13;;;;;;;;;;;16.90;47.90;;;;;;5074159;28;20353;-69
2021/04/19 04:02:41;;;;;;;;;;;16.90;45.20;;;;;;5075981;28;19940;-69
2021/04/19 04:05:07;;;;;;;;;;;16.90;43.20;;;;;;5074984;28;19940;-69
2021/04/19 04:07:34;;;;;;;;;;;17.10;42.50;;;;;;5075693;28;19920;-70
2021/04/19 04:10:02;;;;;;;;;;;17.10;41.80;;;;;;5075397;28;20015;-70
2021/04/19 04:12:28;;;;;;;;;;;17.10;41.70;;;;;;5076900;28;19924;-70
2021/04/19 04:14:56;;;;;;;;;;;17.00;43.00;;;;;;5070193;28;20027;-70
2021/04/19 04:17:22;;;;;;;;;;;17.00;45.70;;;;;;5075048;28;19913;-69
2021/04/19 04:19:48;;;;;;;;;;;16.90;44.10;;;;;;5074499;28;20235;-70
2021/04/19 04:22:15;;;;;;;;;;;16.90;41.40;;;;;;5066693;28;19920;-69
2021/04/19 04:24:41;;;;;;;;;;;16.80;46.60;;;;;;5076075;28;20368;-69
2021/04/19 04:27:08;;;;;;;;;;;16.70;49.40;;;;;;5075016;28;19913;-70
2021/04/19 04:29:34;;;;;;;;;;;16.60;43.60;;;;;;5075800;28;19935;-70
2021/04/19 04:32:00;;;;;;;;;;;16.40;51.00;;;;;;5074982;28;19912;-70
2021/04/19 04:34:26;;;;;;;;;;;16.20;51.70;;;;;;5076503;28;19931;-70
2021/04/19 04:36:52;;;;;;;;;;;16.00;52.80;;;;;;5075496;28;20011;-70
2021/04/19 04:39:18;;;;;;;;;;;15.90;53.60;;;;;;5076132;28;19915;-70
2021/04/19 04:41:44;;;;;;;;;;;16.00;49.00;;;;;;5072379;28;19964;-70
2021/04/19 04:44:15;;;;;;;;;;;16.20;45.80;;;;;;5074662;28;19969;-70
2021/04/19 04:46:48;;;;;;;;;;;16.30;44.60;;;;;;5071344;28;19948;-69
2021/04/19 04:49:22;;;;;;;;;;;16.30;43.80;;;;;;5097235;28;20485;-70
2021/04/19 04:51:48;;;;;;;;;;;16.40;43.00;;;;;;5072794;28;20427;-70
2021/04/19 04:54:18;;;;;;;;;;;16.40;44.30;;;;;;5075213;28;19916;-69
2021/04/19 04:56:50;;;;;;;;;;;16.40;42.10;;;;;;5073874;28;19920;-69
2021/04/19 04:59:17;;;;;;;;;;;16.40;42.30;;;;;;5075066;28;20000;-69
2021/04/19 05:01:43;;;;;;;;;;;16.40;42.80;;;;;;5074307;28;19912;-70
2021/04/19 05:04:09;;;;;;;;;;;16.40;43.30;;;;;;5070838;28;19923;-69
2021/04/19 05:06:35;;;;;;;;;;;16.30;42.90;;;;;;5074537;28;19992;-69
2021/04/19 05:09:02;;;;;;;;;;;16.30;42.40;;;;;;5075112;28;19909;-69
2021/04/19 05:11:28;;;;;;;;;;;16.30;41.10;;;;;;5074921;28;19908;-69
2021/04/19 05:14:03;;;;;;;;;;;16.40;42.30;;;;;;5075214;28;20065;-69
2021/04/19 05:16:30;;;;;;;;;;;16.30;42.00;;;;;;5074193;28;19972;-69
2021/04/19 05:19:03;;;;;;;;;;;16.20;41.90;;;;;;5073209;28;19908;-69
2021/04/19 05:21:29;;;;;;;;;;;16.10;43.40;;;;;;5070087;28;19966;-69
2021/04/19 05:23:55;;;;;;;;;;;16.00;43.60;;;;;;5073318;28;19912;-69
2021/04/19 05:26:22;;;;;;;;;;;16.00;43.60;;;;;;5074689;28;20266;-69
2021/04/19 05:28:48;;;;;;;;;;;15.90;42.50;;;;;;5090107;28;19908;-69
2021/04/19 05:31:14;;;;;;;;;;;15.90;42.10;;;;;;5073194;28;19921;-69
2021/04/19 05:33:41;;;;;;;;;;;15.90;42.00;;;;;;5071189;28;20054;-69
2021/04/19 05:36:10;;;;;;;;;;;15.90;43.00;;;;;;5071069;28;19974;-69
2021/04/19 05:38:44;;;;;;;;;;;15.80;42.00;;;;;;5072872;28;20314;-69
2021/04/19 05:41:14;;;;;;;;;;;15.80;42.70;;;;;;5073831;28;19920;-69
2021/04/19 05:43:43;;;;;;;;;;;15.70;42.60;;;;;;5073153;28;19923;-69
2021/04/19 05:46:12;;;;;;;;;;;15.70;41.90;;;;;;5074707;28;19912;-69
2021/04/19 05:48:38;;;;;;;;;;;15.60;41.80;;;;;;5074338;28;19913;-69
2021/04/19 05:51:08;;;;;;;;;;;15.70;42.10;;;;;;5071174;28;19916;-69
2021/04/19 05:53:34;;;;;;;;;;;15.50;41.80;;;;;;5080087;28;19992;-69
2021/04/19 05:56:04;;;;;;;;;;;15.40;42.80;;;;;;5073192;28;19923;-69
2021/04/19 05:58:53;;;;;;;;;;;15.40;43.80;;;;;;5072872;28;19943;-69
2021/04/19 06:01:20;;;;;;;;;;;15.30;42.00;;;;;;5070332;28;19912;-69
2021/04/19 06:04:05;;;;;;;;;;;15.30;41.80;;;;;;5072123;28;19916;-69
2021/04/19 06:06:37;;;;;;;;;;;15.40;43.00;;;;;;5073000;28;19917;-69
2021/04/19 06:09:06;;;;;;;;;;;15.40;43.90;;;;;;5072852;28;19989;-69
2021/04/19 06:11:42;;;;;;;;;;;15.50;43.90;;;;;;5073477;28;19943;-69
2021/04/19 06:14:10;;;;;;;;;;;15.50;44.60;;;;;;5069308;28;19925;-69
2021/04/19 06:16:38;;;;;;;;;;;15.40;43.80;;;;;;5072306;28;20297;-69
2021/04/19 06:19:09;;;;;;;;;;;15.30;43.20;;;;;;5073743;28;20011;-69
2021/04/19 06:21:35;;;;;;;;;;;15.30;43.80;;;;;;5072589;28;19920;-69
2021/04/19 06:24:02;;;;;;;;;;;15.40;45.30;;;;;;5073500;28;19935;-70
2021/04/19 06:26:29;;;;;;;;;;;15.40;46.20;;;;;;5073217;28;19924;-69
2021/04/19 06:28:55;;;;;;;;;;;15.40;45.40;;;;;;5073136;28;19913;-70
2021/04/19 06:31:22;;;;;;;;;;;15.40;47.10;;;;;;5069957;28;20110;-69
2021/04/19 06:33:54;;;;;;;;;;;15.60;45.90;;;;;;5073010;28;19924;-69
2021/04/19 06:36:21;;;;;;;;;;;15.30;44.70;;;;;;5066562;28;19912;-69
2021/04/19 06:38:47;;;;;;;;;;;15.20;44.40;;;;;;5071656;28;19912;-69
2021/04/19 06:41:14;;;;;;;;;;;15.20;45.20;;;;;;5075354;28;20003;-69
2021/04/19 06:43:40;;;;;;;;;;;15.20;45.80;;;;;;5073731;28;19920;-69
2021/04/19 06:46:06;;;;;;;;;;;15.30;46.60;;;;;;5072922;28;20350;-69
2021/04/19 06:48:32;;;;;;;;;;;15.20;44.50;;;;;;5072747;28;20349;-69
2021/04/19 06:50:59;;;;;;;;;;;15.10;44.30;;;;;;5073826;28;19978;-69
2021/04/19 06:53:25;;;;;;;;;;;15.10;44.50;;;;;;5073919;28;19917;-69
2021/04/19 06:55:51;;;;;;;;;;;15.00;44.40;;;;;;5073758;28;19951;-69
2021/04/19 06:58:17;;;;;;;;;;;15.00;44.40;;;;;;5073822;28;19913;-69
2021/04/19 07:00:44;;;;;;;;;;;14.90;44.00;;;;;;5073427;28;20176;-69
2021/04/19 07:03:10;;;;;;;;;;;14.90;43.70;;;;;;5073476;28;19935;-69
2021/04/19 07:05:37;;;;;;;;;;;14.80;43.70;;;;;;5073513;28;20315;-69
2021/04/19 07:08:09;;;;;;;;;;;14.80;44.30;;;;;;5077105;28;20347;-69
2021/04/19 07:10:36;;;;;;;;;;;14.80;44.10;;;;;;5075453;28;19918;-69
2021/04/19 07:13:09;;;;;;;;;;;14.70;44.80;;;;;;5076960;28;20301;-69
2021/04/19 07:15:37;;;;;;;;;;;14.60;44.20;;;;;;5108807;28;19995;-69
2021/04/19 07:18:04;;;;;;;;;;;14.60;44.80;;;;;;5068596;28;20351;-69
2021/04/19 07:20:30;;;;;;;;;;;14.50;44.80;;;;;;5076522;28;19916;-68
2021/04/19 07:22:58;;;;;;;;;;;14.50;44.20;;;;;;5076857;28;19931;-69
2021/04/19 07:25:24;;;;;;;;;;;14.50;43.70;;;;;;5076696;28;20358;-68
2021/04/19 07:27:50;;;;;;;;;;;14.40;45.60;;;;;;5076164;28;19924;-68
2021/04/19 07:30:17;;;;;;;;;;;14.40;43.60;;;;;;5076579;28;20373;-69
2021/04/19 07:32:44;;;;;;;;;;;14.30;43.40;;;;;;5074750;28;19955;-69
2021/04/19 07:35:10;;;;;;;;;;;14.30;44.50;;;;;;5076026;28;19912;-69
2021/04/19 07:37:37;;;;;;;;;;;14.30;44.70;;;;;;5074748;28;19924;-69
2021/04/19 07:40:04;;;;;;;;;;;14.30;44.70;;;;;;5067527;28;19920;-69
2021/04/19 07:42:32;;;;;;;;;;;14.30;46.20;;;;;;5071932;28;19999;-69
2021/04/19 07:44:58;;;;;;;;;;;14.20;44.60;;;;;;5075710;28;19931;-69
2021/04/19 07:47:36;;;;;;;;;;;14.30;46.70;;;;;;5074843;28;19920;-70
2021/04/19 07:50:22;;;;;;;;;;;14.20;45.00;;;;;;5076234;28;19913;-69
2021/04/19 07:52:57;;;;;;;;;;;14.20;45.70;;;;;;5072251;28;19927;-69
2021/04/19 07:55:25;;;;;;;;;;;14.10;46.30;;;;;;5076072;28;19951;-69
2021/04/19 07:57:51;;;;;;;;;;;14.10;46.20;;;;;;5082814;28;19919;-69
2021/04/19 08:00:23;;;;;;;;;;;14.10;45.70;;;;;;5074046;28;20264;-69
2021/04/19 08:03:01;;;;;;;;;;;14.10;46.00;;;;;;5074777;28;19913;-69
2021/04/19 08:05:31;;;;;;;;;;;14.10;49.30;;;;;;5068193;28;19916;-69
2021/04/19 08:07:57;;;;;;;;;;;14.20;50.40;;;;;;5072817;28;19974;-69
2021/04/19 08:10:23;;;;;;;;;;;14.20;51.70;;;;;;5075184;28;19919;-69
2021/04/19 08:12:52;;;;;;;;;;;14.20;49.00;;;;;;5069276;28;19917;-69
2021/04/19 08:15:20;;;;;;;;;;;14.10;50.70;;;;;;5075428;28;20235;-69
2021/04/19 08:17:46;;;;;;;;;;;14.30;52.30;;;;;;5073787;28;20334;-69
2021/04/19 08:20:14;;;;;;;;;;;14.40;51.60;;;;;;5075579;28;19923;-69
2021/04/19 08:22:41;;;;;;;;;;;14.20;52.60;;;;;;5073723;28;19916;-69
2021/04/19 08:25:12;;;;;;;;;;;14.20;51.00;;;;;;5076059;28;19965;-69
2021/04/19 08:27:41;;;;;;;;;;;14.00;50.90;;;;;;5075630;28;19919;-69
2021/04/19 08:30:11;;;;;;;;;;;13.80;51.40;;;;;;5074274;28;19919;-69
2021/04/19 08:32:38;;;;;;;;;;;13.80;49.90;;;;;;5073207;28;19924;-69
2021/04/19 08:35:05;;;;;;;;;;;13.70;49.80;;;;;;5075504;28;19917;-69
2021/04/19 08:37:31;;;;;;;;;;;13.70;49.30;;;;;;5074675;28;19920;-69
2021/04/19 08:39:58;;;;;;;;;;;13.70;48.50;;;;;;5075134;28;19935;-69
2021/04/19 08:42:25;;;;;;;;;;;13.70;48.90;;;;;;5070024;28;19916;-69
2021/04/19 08:44:54;;;;;;;;;;;13.70;49.60;;;;;;5071028;28;19913;-69
2021/04/19 08:47:20;;;;;;;;;;;13.70;49.50;;;;;;5074557;28;19913;-69
2021/04/19 08:49:47;;;;;;;;;;;13.80;50.10;;;;;;5075102;28;19913;-69
2021/04/19 08:52:16;;;;;;;;;;;14.00;53.10;;;;;;5074079;28;20604;-68
2021/04/19 08:54:43;;;;;;;;;;;14.10;52.40;;;;;;5073157;28;20338;-69
2021/04/19 08:57:09;;;;;;;;;;;14.00;53.10;;;;;;5074729;28;19920;-69
2021/04/19 08:59:36;;;;;;;;;;;13.90;52.20;;;;;;5074942;28;20349;-69
2021/04/19 09:02:03;;;;;;;;;;;13.90;51.20;;;;;;5073814;28;20015;-69
2021/04/19 09:04:29;;;;;;;;;;;13.90;51.90;;;;;;5075076;28;20376;-68
2021/04/19 09:06:57;;;;;;;;;;;13.90;53.10;;;;;;5073818;28;20007;-69
2021/04/19 09:09:32;;;;;;;;;;;13.80;56.30;;;;;;5071838;28;19923;-68
2021/04/19 09:12:10;;;;;;;;;;;13.80;52.80;;;;;;5074289;28;19916;-68
2021/04/19 09:14:40;;;;;;;;;;;13.90;55.10;;;;;;5074378;28;19981;-68
2021/04/19 09:17:06;;;;;;;;;;;13.70;51.80;;;;;;5073873;28;20243;-68
2021/04/19 09:19:34;;;;;;;;;;;13.60;52.00;;;;;;5074851;28;19958;-69
2021/04/19 09:22:10;;;;;;;;;;;13.50;51.40;;;;;;5073678;28;19919;-69
2021/04/19 09:24:54;;;;;;;;;;;13.60;52.70;;;;;;5074813;28;20258;-69
2021/04/19 09:27:40;;;;;;;;;;;13.50;51.10;;;;;;5074304;28;19966;-69
2021/04/19 09:30:25;;;;;;;;;;;13.50;50.60;;;;;;5073590;28;19912;-68
2021/04/19 09:33:06;;;;;;;;;;;13.50;56.80;;;;;;5073431;28;19921;-68
2021/04/19 09:35:41;;;;;;;;;;;13.30;55.00;;;;;;5073049;28;19924;-68
2021/04/19 09:38:11;;;;;;;;;;;13.20;58.20;;;;;;5074035;28;19913;-69
2021/04/19 09:40:47;;;;;;;;;;;13.20;53.40;;;;;;5074390;28;20405;-68
2021/04/19 09:43:13;;;;;;;;;;;13.20;53.30;;;;;;5073274;28;19925;-69
2021/04/19 09:45:44;;;;;;;;;;;13.30;55.30;;;;;;5073965;28;20340;-69
2021/04/19 09:48:25;;;;;;;;;;;13.20;52.30;;;;;;5074308;28;19919;-69
2021/04/19 09:50:52;;;;;;;;;;;13.20;57.80;;;;;;5072707;28;19924;-68
2021/04/19 09:53:18;;;;;;;;;;;13.00;55.20;;;;;;5071712;28;19939;-68
2021/04/19 09:55:44;;;;;;;;;;;13.20;53.40;;;;;;5073536;28;20269;-69
2021/04/19 09:58:10;;;;;;;;;;;13.40;55.20;;;;;;5073014;28;19912;-68
2021/04/19 10:00:36;;;;;;;;;;;13.30;54.60;;;;;;5064876;28;19959;-69
2021/04/19 10:03:03;;;;;;;;;;;13.20;54.90;;;;;;5074079;28;19981;-69
2021/04/19 10:05:29;;;;;;;;;;;13.40;54.90;;;;;;5073799;28;19913;-69
2021/04/19 10:07:58;;;;;;;;;;;13.30;54.00;;;;;;5074366;28;20353;-69
2021/04/19 10:10:24;;;;;;;;;;;13.20;55.30;;;;;;5074238;28;19966;-68
2021/04/19 10:12:50;;;;;;;;;;;13.50;57.30;;;;;;5073505;28;20308;-69
2021/04/19 10:15:19;;;;;;;;;;;13.30;58.50;;;;;;5074068;28;20377;-68
2021/04/19 10:17:46;;;;;;;;;;;13.20;58.30;;;;;;5073157;28;19912;-69
2021/04/19 10:20:18;;;;;;;;;;;13.30;55.70;;;;;;5073845;28;19931;-69
2021/04/19 10:22:44;;;;;;;;;;;13.30;57.00;;;;;;5074525;28;19916;-69
2021/04/19 10:25:10;;;;;;;;;;;13.50;56.80;;;;;;5076369;28;19965;-70
2021/04/19 10:27:36;;;;;;;;;;;13.30;57.70;;;;;;5073298;28;19912;-69
2021/04/19 10:30:13;;;;;;;;;;;13.40;59.00;;;;;;5072899;28;19927;-69
2021/04/19 10:32:39;;;;;;;;;;;13.50;58.40;;;;;;5072765;28;20303;-69
2021/04/19 10:35:25;;;;;;;;;;;13.50;58.40;;;;;;5072402;28;20307;-68
2021/04/19 10:37:51;;;;;;;;;;;13.50;58.90;;;;;;5069297;28;19912;-68
2021/04/19 10:40:17;;;;;;;;;;;13.40;58.30;;;;;;5074025;28;20011;-69
2021/04/19 10:42:43;;;;;;;;;;;13.40;59.90;;;;;;5063806;28;20223;-68
2021/04/19 10:45:10;;;;;;;;;;;13.40;60.20;;;;;;5046253;28;19921;-69
2021/04/19 10:47:36;;;;;;;;;;;13.40;59.40;;;;;;5057199;28;19940;-69
2021/04/19 10:50:02;;;;;;;;;;;13.40;58.70;;;;;;5058099;28;19920;-69
2021/04/19 10:52:28;;;;;;;;;;;13.40;58.70;;;;;;5055172;28;19913;-68
2021/04/19 10:54:54;;;;;;;;;;;13.40;59.10;;;;;;5065680;28;19922;-69
2021/04/19 10:57:24;;;;;;;;;;;13.40;60.70;;;;;;5068096;28;19919;-69
2021/04/19 10:59:52;;;;;;;;;;;13.30;60.50;;;;;;5058018;28;19913;-69
2021/04/19 11:02:28;;;;;;;;;;;13.30;60.20;;;;;;5056459;28;19913;-69
2021/04/19 11:04:55;;;;;;;;;;;13.30;59.40;;;;;;5057512;28;20342;-69
2021/04/19 11:07:24;;;;;;;;;;;13.20;60.90;;;;;;5048949;28;19981;-69
2021/04/19 11:10:08;;;;;;;;;;;13.30;62.50;;;;;;5060040;28;19936;-68
2021/04/19 11:12:34;;;;;;;;;;;13.30;61.00;;;;;;5046550;28;19917;-69
2021/04/19 11:15:13;;;;;;;;;;;13.20;61.80;;;;;;5053193;28;19920;-69
2021/04/19 11:17:39;;;;;;;;;;;13.20;61.00;;;;;;5057813;28;19919;-69
2021/04/19 11:20:23;;;;;;;;;;;13.20;62.60;;;;;;5055033;28;19920;-69
2021/04/19 11:22:49;;;;;;;;;;;13.20;62.40;;;;;;5047493;28;20251;-68
2021/04/19 11:25:17;;;;;;;;;;;13.20;61.90;;;;;;5056470;28;19913;-68
2021/04/19 11:27:43;;;;;;;;;;;13.00;62.50;;;;;;5055549;28;19917;-68
2021/04/19 11:30:18;;;;;;;;;;;12.90;60.00;;;;;;5057327;28;19963;-68
2021/04/19 11:32:44;;;;;;;;;;;12.90;63.00;;;;;;5056473;28;20273;-68
2021/04/19 11:35:26;;;;;;;;;;;12.90;59.60;;;;;;5064377;28;19999;-68
2021/04/19 11:38:03;;;;;;;;;;;12.90;60.20;;;;;;5043584;28;20407;-68
2021/04/19 11:40:34;;;;;;;;;;;12.90;59.80;;;;;;5047534;28;19913;-68
2021/04/19 11:43:15;;;;;;;;;;;13.10;62.50;;;;;;5073104;28;20465;-68
2021/04/19 11:45:41;;;;;;;;;;;13.00;61.20;;;;;;5075628;28;20250;-69
2021/04/19 11:48:09;;;;;;;;;;;12.90;60.20;;;;;;5075792;28;19999;-69
2021/04/19 11:50:37;;;;;;;;;;;12.80;60.60;;;;;;5075624;28;19962;-68
2021/04/19 11:53:03;;;;;;;;;;;12.90;60.90;;;;;;5072725;28;19924;-68
2021/04/19 11:55:29;;;;;;;;;;;12.80;61.10;;;;;;5075586;28;19913;-68
2021/04/19 11:57:55;;;;;;;;;;;12.80;61.90;;;;;;5075647;28;19912;-68
2021/04/19 12:00:22;;;;;;;;;;;12.90;60.70;;;;;;5075553;28;19973;-68
2021/04/19 12:02:48;;;;;;;;;;;12.90;60.10;;;;;;5075530;28;19913;-69
2021/04/19 12:05:14;;;;;;;;;;;13.00;62.60;;;;;;5075658;28;19926;-68
2021/04/19 12:07:40;;;;;;;;;;;13.00;62.20;;;;;;5076014;28;19912;-68
2021/04/19 12:10:07;;;;;;;;;;;13.10;63.00;;;;;;5075255;28;19916;-69
2021/04/19 12:12:33;;;;;;;;;;;13.00;62.00;;;;;;5076592;28;19909;-69
2021/04/19 12:14:59;;;;;;;;;;;13.00;63.10;;;;;;5074535;28;20350;-68
2021/04/19 12:17:25;;;;;;;;;;;13.00;63.80;;;;;;5075921;28;19912;-69
2021/04/19 12:19:51;;;;;;;;;;;12.90;63.10;;;;;;5076049;28;20007;-69
2021/04/19 12:22:17;;;;;;;;;;;13.00;64.90;;;;;;5075872;28;19956;-69
2021/04/19 12:24:43;;;;;;;;;;;12.90;63.20;;;;;;5076768;28;19919;-70
2021/04/19 12:27:09;;;;;;;;;;;12.80;62.00;;;;;;5064078;28;19916;-69
2021/04/19 12:29:35;;;;;;;;;;;12.80;63.00;;;;;;5071818;28;19919;-68
2021/04/19 12:32:01;;;;;;;;;;;12.80;62.80;;;;;;5075247;28;19919;-69
2021/04/19 12:34:27;;;;;;;;;;;12.80;64.00;;;;;;5074097;28;19922;-68
2021/04/19 12:36:54;;;;;;;;;;;12.90;64.60;;;;;;5070747;28;19917;-68
2021/04/19 12:39:20;;;;;;;;;;;12.80;63.20;;;;;;5075614;28;19915;-69
2021/04/19 12:41:47;;;;;;;;;;;12.60;62.20;;;;;;5074429;28;19941;-69
2021/04/19 12:44:13;;;;;;;;;;;12.70;63.30;;;;;;5074114;28;20007;-69
2021/04/19 12:46:39;;;;;;;;;;;12.60;62.30;;;;;;5067880;28;19913;-68
2021/04/19 12:49:05;;;;;;;;;;;12.60;63.70;;;;;;5074734;28;19931;-69
2021/04/19 12:51:32;;;;;;;;;;;12.30;62.50;;;;;;5074674;28;20349;-68
2021/04/19 12:53:58;;;;;;;;;;;12.60;62.90;;;;;;5073212;28;19916;-68
2021/04/19 12:56:24;;;;;;;;;;;12.60;62.80;;;;;;5074633;28;19917;-69
2021/04/19 12:58:50;;;;;;;;;;;12.60;61.40;;;;;;5074383;28;19920;-69
2021/04/19 13:01:16;;;;;;;;;;;12.70;63.50;;;;;;5073920;28;19924;-68
2021/04/19 13:03:42;;;;;;;;;;;12.60;62.80;;;;;;5073254;28;19935;-69
2021/04/19 13:06:08;;;;;;;;;;;12.60;61.60;;;;;;5073127;28;19935;-68
2021/04/19 13:08:34;;;;;;;;;;;12.50;62.00;;;;;;5074578;28;19916;-69
2021/04/19 13:11:00;;;;;;;;;;;12.60;60.50;;;;;;5074748;28;19917;-68
2021/04/19 13:13:26;;;;;;;;;;;12.80;62.80;;;;;;5074024;28;19917;-69
2021/04/19 13:15:52;;;;;;;;;;;12.60;61.00;;;;;;5107391;28;19958;-68
2021/04/19 13:18:18;;;;;;;;;;;12.70;62.20;;;;;;5075037;28;19908;-68
2021/04/19 13:20:44;;;;;;;;;;;12.70;62.70;;;;;;5075149;28;19927;-68
2021/04/19 13:23:11;;;;;;;;;;;12.70;63.80;;;;;;5074928;28;19913;-68
2021/04/19 13:25:37;;;;;;;;;;;12.60;64.00;;;;;;5074003;28;19912;-68
2021/04/19 13:28:04;;;;;;;;;;;12.70;64.30;;;;;;5074311;28;19920;-69
2021/04/19 13:30:30;;;;;;;;;;;12.70;63.80;;;;;;5074238;28;19955;-68
2021/04/19 13:32:56;;;;;;;;;;;12.70;64.20;;;;;;5071727;28;19916;-69
2021/04/19 13:35:22;;;;;;;;;;;12.80;64.40;;;;;;5073551;28;19917;-69
2021/04/19 13:37:48;;;;;;;;;;;12.60;64.30;;;;;;5074062;28;19916;-69
2021/04/19 13:40:15;;;;;;;;;;;12.60;65.30;;;;;;5072965;28;21601;-69
2021/04/19 13:42:42;;;;;;;;;;;12.60;63.10;;;;;;5073103;28;20257;-68
2021/04/19 13:45:10;;;;;;;;;;;12.60;64.30;;;;;;5073688;28;19912;-68
2021/04/19 13:47:36;;;;;;;;;;;12.50;64.30;;;;;;5073356;28;19912;-69
2021/04/19 13:50:03;;;;;;;;;;;12.40;64.20;;;;;;5073719;28;19981;-68
2021/04/19 13:52:29;;;;;;;;;;;12.60;63.20;;;;;;5072017;28;19919;-69
2021/04/19 13:54:55;;;;;;;;;;;12.50;64.00;;;;;;5070066;28;19913;-69
2021/04/19 13:57:21;;;;;;;;;;;12.40;65.60;;;;;;5068342;28;19912;-69
2021/04/19 13:59:48;;;;;;;;;;;12.50;64.10;;;;;;5072719;28;19913;-69
2021/04/19 14:02:14;;;;;;;;;;;12.50;64.50;;;;;;5104488;28;20262;-69
2021/04/19 14:04:40;;;;;;;;;;;12.60;65.20;;;;;;5081423;28;19916;-69
2021/04/19 14:07:06;;;;;;;;;;;12.80;65.30;;;;;;5073986;28;20361;-69
2021/04/19 14:09:32;;;;;;;;;;;12.90;66.00;;;;;;5081888;28;19912;-68
2021/04/19 14:11:58;;;;;;;;;;;12.70;64.00;;;;;;5073981;28;20246;-69
2021/04/19 14:14:24;;;;;;;;;;;12.70;63.90;;;;;;5071934;28;19921;-69
2021/04/19 14:16:50;;;;;;;;;;;12.60;63.90;;;;;;5076884;28;19913;-69
2021/04/19 14:19:17;;;;;;;;;;;12.50;65.00;;;;;;5077353;28;20037;-69
2021/04/19 14:21:43;;;;;;;;;;;12.80;66.60;;;;;;5077772;28;20262;-70
2021/04/19 14:24:10;;;;;;;;;;;13.00;65.70;;;;;;5078253;28;19987;-72